Terminal Aerodrome Forecast
Issued by NWS

Home | Current Version | Previous Version | Text Only | Print | Product List | Glossary On
Versions: 1 2 3 4 5 6 7 8 9 10 11 12 13
975
FTUS42 KTBW 301146
TAFPGD
TAF
KPGD 301146Z 3012/3112 09006KT P6SM SCT009 BKN070
     FM301400 14008KT P6SM VCSH SCT015 BKN035
     FM301800 19009KT P6SM VCTS SCT020CB BKN035
     FM310000 17007KT P6SM VCSH SCT020 OVC040
     FM310400 15008KT P6SM VCSH SCT015 OVC050=

USA.gov is the U.S. government's official web portal to all federal, state and local government web resources and services.